createdAt,value
2023-02-26T00:00:56.164Z,0.1
2023-02-26T00:02:23.115Z,0.1
2023-02-26T00:02:56.330Z,0
2023-02-26T00:03:56.382Z,0.1
2023-02-26T00:05:26.223Z,0.1
2023-02-26T00:05:56.460Z,0.2
2023-02-26T00:06:57.383Z,0.2
2023-02-26T00:08:24.607Z,0.2
2023-02-26T00:08:56.676Z,0.3
2023-02-26T00:09:56.695Z,0.3
2023-02-26T00:11:26.528Z,0.3
2023-02-26T00:11:56.809Z,0.1
2023-02-26T00:12:56.858Z,0.1
2023-02-26T00:14:25.336Z,0.1
2023-02-26T00:14:56.966Z,0
2023-02-26T00:15:57.027Z,-0.1
2023-02-26T00:17:25.664Z,0.1
2023-02-26T00:17:57.901Z,0.1
2023-02-26T00:18:57.247Z,0
2023-02-26T00:20:23.611Z,-0.2
2023-02-26T00:20:57.405Z,0
2023-02-26T00:21:57.414Z,-0.1
2023-02-26T00:23:23.697Z,0
2023-02-26T00:23:57.524Z,0.1
2023-02-26T00:24:57.599Z,0.1
2023-02-26T00:26:22.981Z,0
2023-02-26T00:26:57.718Z,0.1
2023-02-26T00:27:57.773Z,0.1
2023-02-26T00:29:23.451Z,0.1
2023-02-26T00:29:57.914Z,0.1
2023-02-26T00:30:58.011Z,0.1
2023-02-26T00:32:25.616Z,0.1
2023-02-26T00:32:58.093Z,0
2023-02-26T00:33:58.124Z,0
2023-02-26T00:35:26.013Z,0
2023-02-26T00:35:58.246Z,0
2023-02-26T00:36:58.340Z,0.2
2023-02-26T00:38:26.197Z,0.2
2023-02-26T00:38:58.426Z,0
2023-02-26T00:39:58.470Z,0.1
2023-02-26T00:41:24.683Z,0
2023-02-26T00:41:58.592Z,-0.1
2023-02-26T00:42:58.653Z,0
2023-02-26T00:44:23.967Z,0.2
2023-02-26T00:44:58.752Z,0.1
2023-02-26T00:45:58.821Z,0.1
2023-02-26T00:47:25.393Z,0.1
2023-02-26T00:47:58.933Z,0.1
2023-02-26T00:48:59.017Z,-0.1
2023-02-26T00:50:24.631Z,-0.1
2023-02-26T00:50:59.166Z,0
2023-02-26T00:51:59.209Z,-0.1
2023-02-26T00:53:24.084Z,0
2023-02-26T00:53:59.298Z,0.1
2023-02-26T00:54:59.343Z,0
2023-02-26T00:56:25.931Z,-0.2
2023-02-26T00:56:59.528Z,0
2023-02-26T00:57:59.561Z,0
2023-02-26T00:59:25.085Z,-0.2
2023-02-26T00:59:59.685Z,0
2023-02-26T01:00:59.726Z,0
2023-02-26T01:02:24.707Z,-0.2
2023-02-26T01:02:59.851Z,-0.1
2023-02-26T01:04:00.198Z,-0.2
2023-02-26T01:05:24.901Z,-0.2
2023-02-26T01:06:00.106Z,-0.2
2023-02-26T01:07:00.200Z,-0.2
2023-02-26T01:08:25.312Z,-0.1
2023-02-26T01:09:00.218Z,-0.2
2023-02-26T01:10:00.280Z,-0.3
2023-02-26T01:11:24.398Z,-0.2
2023-02-26T01:12:00.406Z,-0.2
2023-02-26T01:13:00.483Z,-0.3
2023-02-26T01:14:24.711Z,-0.2
2023-02-26T01:15:00.556Z,-0.2
2023-02-26T01:16:00.649Z,-0.3
2023-02-26T01:17:24.351Z,-0.4
2023-02-26T01:18:00.743Z,-0.4
2023-02-26T01:19:00.827Z,-0.3
2023-02-26T01:20:28.152Z,-0.4
2023-02-26T01:21:00.932Z,-0.4
2023-02-26T01:22:01.008Z,-0.4
2023-02-26T01:23:27.634Z,-0.5
2023-02-26T01:24:01.135Z,-0.5
2023-02-26T01:25:01.199Z,-0.4
2023-02-26T01:26:26.950Z,-0.4
2023-02-26T01:27:01.308Z,-0.5
2023-02-26T01:28:01.351Z,-0.5
2023-02-26T01:29:28.180Z,-0.3
2023-02-26T01:30:01.450Z,-0.4
2023-02-26T01:31:01.616Z,-0.4
2023-02-26T01:32:28.344Z,-0.4
2023-02-26T01:33:01.635Z,-0.4
2023-02-26T01:34:01.725Z,-0.4
2023-02-26T01:35:10.277Z,-0.5
2023-02-26T01:36:01.831Z,-0.6
2023-02-26T01:37:01.873Z,-0.5
2023-02-26T01:38:29.092Z,-0.6
2023-02-26T01:39:02.011Z,-0.6
2023-02-26T01:40:02.016Z,-0.5
2023-02-26T01:41:29.131Z,-0.5
2023-02-26T01:42:02.124Z,-0.5
2023-02-26T01:43:02.198Z,-0.6
2023-02-26T01:44:30.379Z,-0.5
2023-02-26T01:45:02.406Z,-0.4
2023-02-26T01:46:02.557Z,-0.4
2023-02-26T01:47:31.887Z,-0.5
2023-02-26T01:48:02.554Z,-0.5
2023-02-26T01:49:02.643Z,-0.5
2023-02-26T01:50:32.054Z,-0.5
2023-02-26T01:51:02.737Z,-0.6
2023-02-26T01:52:02.876Z,-0.6
2023-02-26T01:53:33.526Z,-0.6
2023-02-26T01:54:02.876Z,-0.5
2023-02-26T01:55:02.972Z,-0.5
2023-02-26T01:56:32.304Z,-0.5
2023-02-26T01:57:03.073Z,-0.6
2023-02-26T01:58:03.101Z,-0.5
2023-02-26T01:59:31.482Z,-0.5
2023-02-26T02:00:03.185Z,-0.5
2023-02-26T02:01:03.260Z,-0.5
2023-02-26T02:02:32.498Z,-0.5
2023-02-26T02:03:03.471Z,-0.7
2023-02-26T02:04:03.415Z,-0.7
2023-02-26T02:05:31.831Z,-0.6
2023-02-26T02:06:03.547Z,-0.6
2023-02-26T02:07:03.587Z,-0.6
2023-02-26T02:08:31.841Z,-0.6
2023-02-26T02:09:03.679Z,-0.6
2023-02-26T02:10:03.735Z,-0.7
2023-02-26T02:11:31.285Z,-0.7
2023-02-26T02:12:03.894Z,-0.6
2023-02-26T02:13:03.943Z,-0.6
2023-02-26T02:14:32.168Z,-0.6
2023-02-26T02:15:04.048Z,-0.5
2023-02-26T02:16:04.179Z,-0.5
2023-02-26T02:17:31.486Z,-0.5
2023-02-26T02:18:04.236Z,-0.5
2023-02-26T02:19:04.274Z,-0.6
2023-02-26T02:20:31.677Z,-0.7
2023-02-26T02:21:04.394Z,-0.6
2023-02-26T02:22:04.446Z,-0.6
2023-02-26T02:23:31.908Z,-0.6
2023-02-26T02:24:04.546Z,-0.6
2023-02-26T02:25:04.595Z,-0.5
2023-02-26T02:26:15.546Z,-0.5
2023-02-26T02:27:04.803Z,-0.5
2023-02-26T02:28:04.772Z,-0.4
2023-02-26T02:29:31.287Z,-0.4
2023-02-26T02:30:04.869Z,-0.4
2023-02-26T02:31:04.967Z,-0.5
2023-02-26T02:32:32.363Z,-0.4
2023-02-26T02:33:05.065Z,-0.3
2023-02-26T02:34:05.121Z,-0.2
2023-02-26T02:35:34.456Z,-0.3
2023-02-26T02:36:05.241Z,-0.4
2023-02-26T02:37:05.332Z,-0.6
2023-02-26T02:38:32.114Z,-0.7
2023-02-26T02:39:05.400Z,-0.5
2023-02-26T02:40:05.462Z,-0.5
2023-02-26T02:41:32.473Z,-0.4
2023-02-26T02:42:05.596Z,-0.3
2023-02-26T02:43:05.714Z,-0.2
2023-02-26T02:44:34.292Z,-0.4
2023-02-26T02:45:05.738Z,-0.5
2023-02-26T02:46:05.974Z,-0.5
2023-02-26T02:47:33.459Z,-0.6
2023-02-26T02:48:06.023Z,-0.6
2023-02-26T02:49:06.021Z,-0.6
2023-02-26T02:50:29.449Z,-0.7
2023-02-26T02:51:06.095Z,-0.6
2023-02-26T02:52:06.158Z,-0.7
2023-02-26T02:53:35.765Z,-0.8
2023-02-26T02:54:06.284Z,-0.7
2023-02-26T02:55:06.365Z,-0.8
2023-02-26T02:56:35.202Z,-0.8
2023-02-26T02:57:06.506Z,-0.8
2023-02-26T02:58:06.517Z,-0.8
2023-02-26T02:59:34.662Z,-0.8
2023-02-26T03:00:06.615Z,-0.9
2023-02-26T03:01:06.699Z,-0.9
2023-02-26T03:02:33.903Z,-0.8
2023-02-26T03:03:06.754Z,-0.8
2023-02-26T03:04:06.796Z,-0.8
2023-02-26T03:05:36.576Z,-0.7
2023-02-26T03:06:06.946Z,-0.8
2023-02-26T03:07:06.972Z,-0.8
2023-02-26T03:08:07.040Z,-0.9
2023-02-26T03:09:13.224Z,-0.9
2023-02-26T03:10:07.136Z,-0.9
2023-02-26T03:11:12.836Z,-1
2023-02-26T03:12:07.287Z,-0.8
2023-02-26T03:13:12.804Z,-0.8
2023-02-26T03:14:07.371Z,-0.7
2023-02-26T03:15:12.349Z,-0.6
2023-02-26T03:16:07.520Z,-0.6
2023-02-26T03:17:11.999Z,-0.7
2023-02-26T03:18:07.580Z,-0.8
2023-02-26T03:19:12.290Z,-0.8
2023-02-26T03:20:07.644Z,-0.6
2023-02-26T03:21:13.077Z,-0.7
2023-02-26T03:22:07.782Z,-0.7
2023-02-26T03:23:12.332Z,-0.6
2023-02-26T03:24:07.903Z,-0.5
2023-02-26T03:25:12.672Z,-0.6
2023-02-26T03:26:09.510Z,-0.7
2023-02-26T03:27:12.713Z,-0.8
2023-02-26T03:28:08.090Z,-0.9
2023-02-26T03:29:14.770Z,-1
2023-02-26T03:30:08.209Z,-0.9
2023-02-26T03:31:13.082Z,-0.9
2023-02-26T03:32:08.400Z,-0.8
2023-02-26T03:33:15.713Z,-1
2023-02-26T03:34:08.443Z,-0.9
2023-02-26T03:35:08.509Z,-0.9
2023-02-26T03:36:15.433Z,-0.7
2023-02-26T03:37:08.576Z,-0.8
2023-02-26T03:38:08.649Z,-1
2023-02-26T03:39:08.699Z,-1
2023-02-26T03:40:08.756Z,-1
2023-02-26T03:41:08.802Z,-1
2023-02-26T03:42:25.806Z,-1
2023-02-26T03:43:08.921Z,-1
2023-02-26T03:44:08.998Z,-1.1
2023-02-26T03:45:09.051Z,-1.1
2023-02-26T03:46:09.157Z,-1.1
2023-02-26T03:47:09.209Z,-1.2
2023-02-26T03:48:15.815Z,-1.2
2023-02-26T03:49:09.351Z,-1.1
2023-02-26T03:50:09.367Z,-1.1
2023-02-26T03:51:09.395Z,-1.1
2023-02-26T03:52:14.494Z,-1
2023-02-26T03:53:09.487Z,-1
2023-02-26T03:54:15.102Z,-1
2023-02-26T03:55:09.692Z,-1.1
2023-02-26T03:56:15.441Z,-1.1
2023-02-26T03:57:09.803Z,-1
2023-02-26T03:58:15.432Z,-0.9
2023-02-26T03:59:10.178Z,-0.9
2023-02-26T04:00:16.882Z,-0.9
2023-02-26T04:01:10.023Z,-0.9
2023-02-26T04:02:16.525Z,-0.8
2023-02-26T04:03:10.137Z,-0.9
2023-02-26T04:04:17.949Z,-0.9
2023-02-26T04:05:10.257Z,-0.8
2023-02-26T04:06:17.743Z,-0.7
2023-02-26T04:07:10.378Z,-0.8
2023-02-26T04:08:18.171Z,-0.7
2023-02-26T04:09:10.518Z,-0.7
2023-02-26T04:10:17.740Z,-1
2023-02-26T04:11:10.624Z,-1
2023-02-26T04:12:29.472Z,-1.1
2023-02-26T04:13:10.741Z,-1
2023-02-26T04:14:21.477Z,-1.1
2023-02-26T04:15:10.882Z,-1
2023-02-26T04:16:20.042Z,-1
2023-02-26T04:17:11.002Z,-1.2
2023-02-26T04:18:22.519Z,-1.2
2023-02-26T04:19:11.122Z,-1.3
2023-02-26T04:20:22.297Z,-1.3
2023-02-26T04:21:11.214Z,-1.4
2023-02-26T04:22:22.262Z,-1.3
2023-02-26T04:23:11.415Z,-1.4
2023-02-26T04:24:24.901Z,-1.4
2023-02-26T04:25:11.419Z,-1.4
2023-02-26T04:26:26.205Z,-1.4
2023-02-26T04:27:11.521Z,-1.3
2023-02-26T04:28:26.390Z,-1.4
2023-02-26T04:29:11.650Z,-1.4
2023-02-26T04:31:26.566Z,-1.3
2023-02-26T04:32:12.013Z,-1.3
2023-02-26T04:33:11.965Z,-1.3
2023-02-26T04:34:12.092Z,-1.3
2023-02-26T04:35:12.114Z,-1.3
2023-02-26T04:36:12.180Z,-1.4
2023-02-26T04:37:12.239Z,-1.2
2023-02-26T04:38:12.246Z,-1
2023-02-26T04:39:12.319Z,-1.1
2023-02-26T04:40:12.408Z,-1
2023-02-26T04:41:12.417Z,-1.1
2023-02-26T04:42:12.485Z,-1.2
2023-02-26T04:43:12.524Z,-1.2
2023-02-26T04:44:12.607Z,-1.2
2023-02-26T04:45:12.693Z,-1
2023-02-26T04:46:12.752Z,-1.2
2023-02-26T04:47:12.815Z,-1.1
2023-02-26T04:48:12.854Z,-1.1
2023-02-26T04:49:12.907Z,-0.9
2023-02-26T04:50:13.043Z,-1
2023-02-26T04:51:12.989Z,-1.1
2023-02-26T04:52:13.071Z,-1.2
2023-02-26T04:53:13.170Z,-1.2
2023-02-26T04:54:13.240Z,-1.2
2023-02-26T04:55:13.242Z,-1.3
2023-02-26T04:56:13.331Z,-1.2
2023-02-26T04:57:13.353Z,-1.2
2023-02-26T04:58:13.427Z,-1.1
2023-02-26T04:59:13.591Z,-1.1
2023-02-26T05:00:13.495Z,-1.1
2023-02-26T05:01:13.548Z,-1.2
2023-02-26T05:02:13.627Z,-1.2
2023-02-26T05:03:13.658Z,-1.2
2023-02-26T05:04:13.743Z,-1.3
2023-02-26T05:05:13.784Z,-1.2
2023-02-26T05:06:13.975Z,-1.2
2023-02-26T05:07:13.925Z,-1.1
2023-02-26T05:08:13.968Z,-1.1
2023-02-26T05:09:14.102Z,-1
2023-02-26T05:10:14.175Z,-1.1
2023-02-26T05:11:14.154Z,-1.2
2023-02-26T05:12:14.234Z,-1.2
2023-02-26T05:13:14.279Z,-1.2
2023-02-26T05:14:14.388Z,-1.1
2023-02-26T05:15:14.498Z,-1.1
2023-02-26T05:16:14.519Z,-0.9
2023-02-26T05:17:14.550Z,-0.8
2023-02-26T05:18:14.583Z,-0.9
2023-02-26T05:19:14.660Z,-0.9
2023-02-26T05:20:14.677Z,-0.9
2023-02-26T05:21:14.811Z,-0.8
2023-02-26T05:22:14.839Z,-0.8
2023-02-26T05:23:15.214Z,-0.9
2023-02-26T05:24:14.886Z,-0.9
2023-02-26T05:25:14.963Z,-0.8
2023-02-26T05:26:14.965Z,-0.6
2023-02-26T05:27:15.079Z,-0.6
2023-02-26T05:28:15.067Z,-0.6
2023-02-26T05:29:15.156Z,-0.8
2023-02-26T05:30:15.198Z,-0.7
2023-02-26T05:31:15.317Z,-0.8
2023-02-26T05:32:15.440Z,-0.7
2023-02-26T05:33:15.411Z,-0.7
2023-02-26T05:34:15.456Z,-0.6
2023-02-26T05:35:15.489Z,-0.7
2023-02-26T05:36:15.510Z,-0.8
2023-02-26T05:37:15.597Z,-0.9
2023-02-26T05:38:15.632Z,-1
2023-02-26T05:39:15.726Z,-1.1
2023-02-26T05:40:15.753Z,-1.2
2023-02-26T05:41:15.889Z,-1
2023-02-26T05:42:15.986Z,-1
2023-02-26T05:43:16.012Z,-1.2
2023-02-26T05:44:16.103Z,-1.2
2023-02-26T05:45:16.172Z,-1.3
2023-02-26T05:46:16.247Z,-1.3
2023-02-26T05:47:16.298Z,-1.4
2023-02-26T05:48:16.355Z,-1.2
2023-02-26T05:49:16.425Z,-1.1
2023-02-26T05:50:16.459Z,-1
2023-02-26T05:51:16.528Z,-1.1
2023-02-26T05:52:16.548Z,-1.2
2023-02-26T05:53:16.576Z,-1.3
2023-02-26T05:54:16.711Z,-1.2
2023-02-26T05:55:16.720Z,-1.2
2023-02-26T05:56:17.819Z,-1.2
2023-02-26T05:57:16.884Z,-1.2
2023-02-26T05:58:16.873Z,-1.2
2023-02-26T05:59:16.963Z,-1.3
2023-02-26T06:00:17.048Z,-1.4
2023-02-26T06:01:17.135Z,-1.4
2023-02-26T06:02:17.182Z,-1.4
2023-02-26T06:03:17.212Z,-1.3
2023-02-26T06:04:17.248Z,-1.4
2023-02-26T06:05:17.266Z,-1.3
2023-02-26T06:06:17.286Z,-1.3
2023-02-26T06:07:17.341Z,-1.4
2023-02-26T06:08:17.388Z,-1.3
2023-02-26T06:09:17.490Z,-1.4
2023-02-26T06:10:17.585Z,-1.4
2023-02-26T06:11:17.595Z,-1.4
2023-02-26T06:12:17.649Z,-1.4
2023-02-26T06:13:17.713Z,-1.4
2023-02-26T06:14:17.768Z,-1.4
2023-02-26T06:15:17.825Z,-1.3
2023-02-26T06:16:17.954Z,-1.3
2023-02-26T06:17:17.948Z,-1.3
2023-02-26T06:18:17.973Z,-1.3
2023-02-26T06:19:18.082Z,-1.2
2023-02-26T06:20:18.109Z,-1.2
2023-02-26T06:21:18.756Z,-1.3
2023-02-26T06:22:18.242Z,-1.1
2023-02-26T06:23:18.293Z,-1.3
2023-02-26T06:24:18.378Z,-1.4
2023-02-26T06:25:18.419Z,-1.4
2023-02-26T06:26:18.502Z,-1.4
2023-02-26T06:27:18.565Z,-1.3
2023-02-26T06:28:18.618Z,-1.4
2023-02-26T06:29:18.682Z,-1.2
2023-02-26T06:30:18.693Z,-1.1
2023-02-26T06:31:20.048Z,-1.2
2023-02-26T06:32:18.918Z,-1.2
2023-02-26T06:33:18.868Z,-1.2
2023-02-26T06:34:18.965Z,-1.2
2023-02-26T06:35:19.037Z,-1.2
2023-02-26T06:36:19.050Z,-1.1
2023-02-26T06:37:19.100Z,-1
2023-02-26T06:38:19.174Z,-1
2023-02-26T06:39:19.266Z,-1.1
2023-02-26T06:40:19.314Z,-1.1
2023-02-26T06:41:19.307Z,-1.1
2023-02-26T06:42:20.190Z,-1
2023-02-26T06:43:19.513Z,-0.9
2023-02-26T06:44:19.528Z,-1
2023-02-26T06:45:19.587Z,-1
2023-02-26T06:46:19.667Z,-1
2023-02-26T06:47:19.652Z,-0.9
2023-02-26T06:48:19.712Z,-0.7
2023-02-26T06:49:19.771Z,-0.7
2023-02-26T06:50:19.843Z,-0.8
2023-02-26T06:51:26.155Z,-1
2023-02-26T06:52:19.951Z,-0.9
2023-02-26T06:53:20.084Z,-0.9
2023-02-26T06:54:20.201Z,-0.8
2023-02-26T06:55:20.211Z,-0.6
2023-02-26T06:56:21.351Z,-0.5
2023-02-26T06:57:20.335Z,-0.4
2023-02-26T06:58:20.441Z,-0.3
2023-02-26T06:59:20.471Z,-0.2
2023-02-26T07:00:20.570Z,-0.3
2023-02-26T07:01:24.738Z,-0.4
2023-02-26T07:02:20.697Z,-0.4
2023-02-26T07:03:20.724Z,-0.3
2023-02-26T07:04:20.878Z,-0.2
2023-02-26T07:05:20.797Z,-0.2
2023-02-26T07:06:27.235Z,-0.2
2023-02-26T07:07:20.932Z,0
2023-02-26T07:08:20.988Z,0.2
2023-02-26T07:09:21.120Z,0
2023-02-26T07:10:21.086Z,-0.1
2023-02-26T07:11:24.960Z,-0.2
2023-02-26T07:12:21.215Z,0
2023-02-26T07:13:21.293Z,0.3
2023-02-26T07:14:21.399Z,0.9
2023-02-26T07:15:21.404Z,1
2023-02-26T07:16:21.557Z,0.8
2023-02-26T07:17:21.538Z,1.1
2023-02-26T07:18:21.562Z,1.7
2023-02-26T07:19:21.607Z,1.8
2023-02-26T07:20:21.646Z,2
2023-02-26T07:21:21.786Z,2.3
2023-02-26T07:22:22.342Z,2
2023-02-26T07:23:21.789Z,1.8
2023-02-26T07:24:21.848Z,1.8
2023-02-26T07:25:21.881Z,1.8
2023-02-26T07:26:21.944Z,1.8
2023-02-26T07:27:22.043Z,1.9
2023-02-26T07:28:22.115Z,1.6
2023-02-26T07:29:22.280Z,1.5
2023-02-26T07:30:22.390Z,2.1
2023-02-26T07:31:33.927Z,2.7
2023-02-26T07:32:22.758Z,2.9
2023-02-26T07:33:22.627Z,2.5
2023-02-26T07:34:22.717Z,1.9
2023-02-26T07:35:22.753Z,1.8
2023-02-26T07:36:22.811Z,1.7
2023-02-26T07:37:22.842Z,2.1
2023-02-26T07:38:22.898Z,2.4
2023-02-26T07:39:22.964Z,2.3
2023-02-26T07:40:23.008Z,2.1
2023-02-26T07:41:23.593Z,1.5
2023-02-26T07:42:23.115Z,2
2023-02-26T07:43:23.184Z,2.2
2023-02-26T07:44:24.032Z,2.2
2023-02-26T07:45:23.279Z,2
2023-02-26T07:46:23.532Z,1.8
2023-02-26T07:47:23.377Z,1.6
2023-02-26T07:48:23.471Z,1.6
2023-02-26T07:49:23.500Z,1.8
2023-02-26T07:50:23.610Z,2.2
2023-02-26T07:51:28.233Z,1.9
2023-02-26T07:52:23.673Z,1.7
2023-02-26T07:53:23.686Z,1.9
2023-02-26T07:54:23.760Z,2.2
2023-02-26T07:55:23.848Z,2.4
2023-02-26T07:56:24.045Z,2.7
2023-02-26T07:57:23.958Z,2.1
2023-02-26T07:58:23.975Z,1.9
2023-02-26T07:59:24.072Z,2.5
2023-02-26T08:00:24.074Z,2.2
2023-02-26T08:01:26.530Z,2.8
2023-02-26T08:02:24.260Z,3
2023-02-26T08:03:24.267Z,2.4
2023-02-26T08:04:24.351Z,2.7
2023-02-26T08:05:24.394Z,2.6
2023-02-26T08:06:24.787Z,2.7
2023-02-26T08:07:24.652Z,2.6
2023-02-26T08:08:24.707Z,2.8
2023-02-26T08:09:24.817Z,2.8
2023-02-26T08:10:24.863Z,3.2
2023-02-26T08:11:26.703Z,3.1
2023-02-26T08:12:24.980Z,2.7
2023-02-26T08:13:25.021Z,3
2023-02-26T08:14:25.083Z,3.3
2023-02-26T08:15:25.129Z,2.9
2023-02-26T08:16:25.495Z,2.8
2023-02-26T08:17:25.288Z,2.9
2023-02-26T08:18:25.326Z,3.2
2023-02-26T08:19:25.388Z,3.2
2023-02-26T08:20:25.456Z,3.2
2023-02-26T08:21:27.078Z,3.1
2023-02-26T08:22:25.569Z,3.2
2023-02-26T08:23:25.588Z,2.9
2023-02-26T08:24:25.659Z,2.8
2023-02-26T08:25:25.687Z,2.5
2023-02-26T08:26:26.342Z,2.1
2023-02-26T08:27:25.778Z,2.7
2023-02-26T08:28:25.829Z,2.8
2023-02-26T08:29:25.959Z,3.5
2023-02-26T08:30:31.080Z,3.2
2023-02-26T08:31:38.787Z,3
2023-02-26T08:32:26.117Z,2.6
2023-02-26T08:33:26.131Z,3.1
2023-02-26T08:34:26.384Z,3.1
2023-02-26T08:35:26.203Z,2.9
2023-02-26T08:36:26.758Z,2.8
2023-02-26T08:37:26.350Z,3.3
2023-02-26T08:38:26.392Z,3.5
2023-02-26T08:39:26.573Z,3.5
2023-02-26T08:40:26.534Z,3.5
2023-02-26T08:41:28.446Z,3.1
2023-02-26T08:42:26.800Z,2.9
2023-02-26T08:43:26.772Z,3
2023-02-26T08:44:26.843Z,3.1
2023-02-26T08:45:26.851Z,3.1
2023-02-26T08:46:27.332Z,3.3
2023-02-26T08:47:28.866Z,4.1
2023-02-26T08:48:27.136Z,3.6
2023-02-26T08:49:27.236Z,3.3
2023-02-26T08:50:27.192Z,3.4
2023-02-26T08:51:28.187Z,3.6
2023-02-26T08:52:27.299Z,4.6
2023-02-26T08:53:27.319Z,4.3
2023-02-26T08:54:27.791Z,3.4
2023-02-26T08:55:27.502Z,2.8
2023-02-26T08:56:27.886Z,3
2023-02-26T08:57:27.539Z,3
2023-02-26T08:58:28.171Z,2.9
2023-02-26T08:59:27.724Z,2.8
2023-02-26T09:00:27.717Z,3.4
2023-02-26T09:01:29.361Z,3.6
2023-02-26T09:02:27.990Z,3.9
2023-02-26T09:03:27.846Z,3.6
2023-02-26T09:04:30.663Z,4.1
2023-02-26T09:05:28.041Z,3.9
2023-02-26T09:06:28.426Z,4.4
2023-02-26T09:07:28.140Z,3.8
2023-02-26T09:08:28.210Z,3.9
2023-02-26T09:09:28.221Z,3.9
2023-02-26T09:10:28.262Z,3.5
2023-02-26T09:11:28.442Z,3.4
2023-02-26T09:12:28.389Z,3.3
2023-02-26T09:13:28.384Z,3.3
2023-02-26T09:14:28.515Z,3.4
2023-02-26T09:15:28.520Z,3.4
2023-02-26T09:16:28.910Z,3.8
2023-02-26T09:17:28.675Z,3.5
2023-02-26T09:18:28.700Z,2.9
2023-02-26T09:19:28.727Z,3.5
2023-02-26T09:20:28.780Z,2.9
2023-02-26T09:21:29.510Z,3.5
2023-02-26T09:22:28.888Z,2.7
2023-02-26T09:23:28.957Z,2.3
2023-02-26T09:24:29.170Z,2.1
2023-02-26T09:25:29.067Z,2.2
2023-02-26T09:26:32.134Z,2.4
2023-02-26T09:27:29.140Z,2.6
2023-02-26T09:28:29.257Z,3.1
2023-02-26T09:29:29.256Z,3.4
2023-02-26T09:30:29.372Z,3.2
2023-02-26T09:31:50.443Z,2.7
2023-02-26T09:32:32.885Z,2.6
2023-02-26T09:33:29.491Z,2.9
2023-02-26T09:34:29.544Z,3
2023-02-26T09:35:43.727Z,3.5
2023-02-26T09:36:29.654Z,3.8
2023-02-26T09:37:29.702Z,4.3
2023-02-26T09:39:28.900Z,4.3
2023-02-26T09:39:33.882Z,3.8
2023-02-26T09:40:29.862Z,4.6
2023-02-26T09:41:29.958Z,4.2
2023-02-26T09:42:29.976Z,4.4
2023-02-26T09:43:30.099Z,4.6
2023-02-26T09:44:30.186Z,3.9
2023-02-26T09:45:39.259Z,3.8
2023-02-26T09:46:31.241Z,4.4
2023-02-26T09:47:36.884Z,4.3
2023-02-26T09:48:46.747Z,4.9
2023-02-26T09:49:45.259Z,4.8
2023-02-26T09:50:30.462Z,4.7
2023-02-26T09:51:39.350Z,4.6
2023-02-26T09:52:30.602Z,4.8
2023-02-26T09:53:41.743Z,4
2023-02-26T09:54:48.944Z,4.7
2023-02-26T09:55:41.558Z,5.1
2023-02-26T09:56:30.798Z,5.2
2023-02-26T09:58:02.801Z,5.4
2023-02-26T09:58:30.879Z,4.9
2023-02-26T09:59:33.237Z,5.1
2023-02-26T10:00:50.731Z,6.6
2023-02-26T10:01:35.159Z,6.4
2023-02-26T10:02:31.149Z,6.1
2023-02-26T10:04:03.752Z,5.7
2023-02-26T10:04:31.312Z,5.3
2023-02-26T10:05:40.998Z,5.4
2023-02-26T10:06:53.821Z,5.6
2023-02-26T10:07:42.951Z,6.3
2023-02-26T10:08:31.426Z,6.4
2023-02-26T10:09:37.409Z,6.7
2023-02-26T10:10:33.316Z,7.9
2023-02-26T10:11:42.429Z,8
2023-02-26T10:12:54.586Z,7.2
2023-02-26T10:13:45.903Z,6.7
2023-02-26T10:14:31.868Z,6.4
2023-02-26T10:16:04.536Z,6.6
2023-02-26T10:16:32.201Z,6.4
2023-02-26T10:17:36.231Z,6.7
2023-02-26T10:18:56.431Z,6.7
2023-02-26T10:19:36.201Z,6.7
2023-02-26T10:20:32.231Z,7.1
2023-02-26T10:21:32.182Z,7
2023-02-26T10:22:32.252Z,7.5
2023-02-26T10:23:32.360Z,7.2
2023-02-26T10:24:45.840Z,7.7
2023-02-26T10:25:32.400Z,7.6
2023-02-26T10:26:32.443Z,6.6
2023-02-26T10:27:56.936Z,5.6
2023-02-26T10:28:32.549Z,5.9
2023-02-26T10:29:34.738Z,5.6
2023-02-26T10:30:32.702Z,5.3
2023-02-26T10:31:32.873Z,6.4
2023-02-26T10:32:32.876Z,5.7
2023-02-26T10:33:55.481Z,6.3
2023-02-26T10:34:32.880Z,6.6
2023-02-26T10:35:32.976Z,6.1
2023-02-26T10:36:56.479Z,6.3
2023-02-26T10:37:33.111Z,5.9
2023-02-26T10:38:33.151Z,7.6
2023-02-26T10:39:40.228Z,8.1
2023-02-26T10:40:33.345Z,7.9
2023-02-26T10:41:33.304Z,8.1
2023-02-26T10:42:45.826Z,8.4
2023-02-26T10:43:33.428Z,7.4
2023-02-26T10:44:33.507Z,7.9
2023-02-26T10:45:33.748Z,7.8
2023-02-26T10:46:33.694Z,7.2
2023-02-26T10:47:33.683Z,7.5
2023-02-26T10:48:56.744Z,7.5
2023-02-26T10:49:33.965Z,7.8
2023-02-26T10:50:33.862Z,8.6
2023-02-26T10:51:43.205Z,8.4
2023-02-26T10:52:33.960Z,8
2023-02-26T10:53:33.988Z,8.5
2023-02-26T10:54:57.859Z,8.2
2023-02-26T10:55:34.125Z,6.5
2023-02-26T10:56:34.195Z,6.1
2023-02-26T10:57:57.687Z,6.1
2023-02-26T10:58:34.309Z,6
2023-02-26T10:59:34.748Z,5.6
2023-02-26T11:00:56.298Z,5.1
2023-02-26T11:01:34.686Z,4.8
2023-02-26T11:02:34.498Z,4.6
2023-02-26T11:03:34.670Z,5
2023-02-26T11:04:34.583Z,5.4
2023-02-26T11:05:34.823Z,4.9
2023-02-26T11:06:34.779Z,4.9
2023-02-26T11:07:35.211Z,4.7
2023-02-26T11:08:34.828Z,4.3
2023-02-26T11:09:36.474Z,4.5
2023-02-26T11:10:34.965Z,4.6
2023-02-26T11:11:34.985Z,4.4
2023-02-26T11:12:35.111Z,4.7
2023-02-26T11:13:35.120Z,4.5
2023-02-26T11:14:35.253Z,4.1
2023-02-26T11:15:35.286Z,4.3
2023-02-26T11:16:35.391Z,4.5
2023-02-26T11:17:35.481Z,4.3
2023-02-26T11:18:35.485Z,4.3
2023-02-26T11:19:35.851Z,4.2
2023-02-26T11:20:35.614Z,3.7
2023-02-26T11:21:35.654Z,4
2023-02-26T11:22:35.696Z,3.9
2023-02-26T11:23:35.738Z,4.1
2023-02-26T11:24:35.796Z,3.7
2023-02-26T11:25:36.213Z,4.3
2023-02-26T11:26:35.953Z,4
2023-02-26T11:27:36.453Z,3.9
2023-02-26T11:28:36.160Z,4.5
2023-02-26T11:29:36.677Z,3.9
2023-02-26T11:30:36.166Z,4.2
2023-02-26T11:31:36.280Z,5.3
2023-02-26T11:32:36.361Z,5.5
2023-02-26T11:33:36.316Z,5.8
2023-02-26T11:34:36.389Z,6.1
2023-02-26T11:35:36.479Z,5.7
2023-02-26T11:36:36.579Z,5.7
2023-02-26T11:37:36.561Z,5.9
2023-02-26T11:38:36.601Z,7.3
2023-02-26T11:39:38.469Z,7.6
2023-02-26T11:40:36.725Z,6.6
2023-02-26T11:41:37.883Z,6.3
2023-02-26T11:42:36.840Z,6.1
2023-02-26T11:43:37.828Z,5.8
2023-02-26T11:44:36.995Z,6.2
2023-02-26T11:45:37.975Z,5.7
2023-02-26T11:46:37.094Z,5.4
2023-02-26T11:47:38.161Z,4.9
2023-02-26T11:48:37.191Z,5
2023-02-26T11:49:38.075Z,5.8
2023-02-26T11:50:37.322Z,5.6
2023-02-26T11:51:38.704Z,5.3
2023-02-26T11:52:37.425Z,5.7
2023-02-26T11:53:40.026Z,5.3
2023-02-26T11:54:37.479Z,5.3
2023-02-26T11:55:43.291Z,5.1
2023-02-26T11:56:37.903Z,5.4
2023-02-26T11:57:38.163Z,5.2
2023-02-26T11:58:37.705Z,5.3
2023-02-26T11:59:38.108Z,5.1
2023-02-26T12:00:37.847Z,5.1
2023-02-26T12:01:38.361Z,5.4
2023-02-26T12:02:38.077Z,5.2
2023-02-26T12:03:41.042Z,4.4
2023-02-26T12:04:38.062Z,4.1
2023-02-26T12:05:38.871Z,4.2
2023-02-26T12:06:38.173Z,4.4
2023-02-26T12:07:38.607Z,4.3
2023-02-26T12:08:38.459Z,4.5
2023-02-26T12:09:38.297Z,4.3
2023-02-26T12:10:46.597Z,4.2
2023-02-26T12:13:46.722Z,4.7
2023-02-26T12:14:32.006Z,4.9
2023-02-26T12:15:34.066Z,4.9
2023-02-26T12:16:32.117Z,5.1
2023-02-26T12:17:33.905Z,5.5
2023-02-26T12:18:32.185Z,5
2023-02-26T12:19:34.229Z,5
2023-02-26T12:20:32.314Z,4.8
2023-02-26T12:21:33.648Z,5
2023-02-26T12:22:32.391Z,6
2023-02-26T12:23:33.761Z,5.8
2023-02-26T12:24:32.559Z,5.9
2023-02-26T12:25:38.752Z,5.9
2023-02-26T12:26:32.676Z,5.8
2023-02-26T12:27:33.709Z,5.2
2023-02-26T12:28:32.784Z,4.8
2023-02-26T12:29:33.845Z,4.5
2023-02-26T12:30:32.943Z,4.7
2023-02-26T12:31:33.748Z,4.3
2023-02-26T12:32:33.050Z,4.1
2023-02-26T12:33:33.678Z,4
2023-02-26T12:34:33.136Z,3.8
2023-02-26T12:35:33.784Z,3.8
2023-02-26T12:36:46.608Z,3.8
2023-02-26T12:37:33.644Z,3.7
2023-02-26T12:38:33.358Z,3.7
2023-02-26T12:39:35.495Z,4.2
2023-02-26T12:40:33.486Z,4.1
2023-02-26T12:41:33.554Z,4.5
2023-02-26T12:42:33.574Z,4.4
2023-02-26T12:43:35.576Z,4.4
2023-02-26T12:44:33.713Z,4.2
2023-02-26T12:45:33.757Z,4.4
2023-02-26T12:46:33.856Z,4.2
2023-02-26T12:47:33.860Z,3.9
2023-02-26T12:48:33.936Z,4.1
2023-02-26T12:49:33.989Z,4.1
2023-02-26T12:50:34.023Z,4.1
2023-02-26T12:51:34.115Z,4.2
2023-02-26T12:52:34.130Z,4.1
2023-02-26T12:53:34.202Z,4
2023-02-26T12:54:36.371Z,3.9
2023-02-26T12:55:34.287Z,3.9
2023-02-26T12:56:34.394Z,4.1
2023-02-26T12:57:34.428Z,4.4
2023-02-26T12:58:34.515Z,4.4
2023-02-26T12:59:34.537Z,4.9
2023-02-26T13:00:34.619Z,4.7
2023-02-26T13:01:34.672Z,4.3
2023-02-26T13:02:34.731Z,4.2
2023-02-26T13:03:34.824Z,4.3
2023-02-26T13:04:34.852Z,4.1
2023-02-26T13:05:34.891Z,4
2023-02-26T13:06:34.999Z,4.2
2023-02-26T13:07:35.037Z,3.9
2023-02-26T13:08:35.051Z,4.2
2023-02-26T13:09:35.063Z,3.9
2023-02-26T13:10:35.149Z,4
2023-02-26T13:11:35.240Z,4.5
2023-02-26T13:12:35.339Z,4.5
2023-02-26T13:13:38.362Z,4.5
2023-02-26T13:14:35.508Z,4.4
2023-02-26T13:15:45.077Z,4.9
2023-02-26T13:16:35.689Z,4.8
2023-02-26T13:17:42.657Z,4.8
2023-02-26T13:18:35.755Z,4.2
2023-02-26T13:19:47.885Z,4.2
2023-02-26T13:20:35.862Z,3.9
2023-02-26T13:21:42.716Z,4.1
2023-02-26T13:22:35.992Z,4.4
2023-02-26T13:23:42.928Z,4.8
2023-02-26T13:24:36.089Z,4.7
2023-02-26T13:25:42.676Z,4.6
2023-02-26T13:26:36.211Z,4.1
2023-02-26T13:27:42.745Z,4.1
2023-02-26T13:28:36.327Z,3.7
2023-02-26T13:29:44.014Z,3.5
2023-02-26T13:30:36.510Z,3.7
2023-02-26T13:31:43.724Z,3.9
2023-02-26T13:32:36.775Z,4.1
2023-02-26T13:33:43.854Z,4.2
2023-02-26T13:34:36.662Z,3.9
2023-02-26T13:35:42.861Z,4
2023-02-26T13:36:36.791Z,3.6
2023-02-26T13:37:38.631Z,3.7
2023-02-26T13:38:36.909Z,3.6
2023-02-26T13:39:44.476Z,3.7
2023-02-26T13:40:37.017Z,4
2023-02-26T13:41:43.770Z,4.1
2023-02-26T13:42:37.156Z,3.9
2023-02-26T13:43:44.661Z,4.2